sensor_id;sensor_type;location;lat;lon;timestamp;P1;durP1;ratioP1;P2;durP2;ratioP2
79670;SDS011;69137;50.878;8.050;2023-09-12T00:01:03;9.30;;;6.68;;
79670;SDS011;69137;50.878;8.050;2023-09-12T00:03:30;9.90;;;6.72;;
79670;SDS011;69137;50.878;8.050;2023-09-12T00:05:58;11.25;;;6.95;;
79670;SDS011;69137;50.878;8.050;2023-09-12T00:08:25;10.23;;;7.22;;
79670;SDS011;69137;50.878;8.050;2023-09-12T00:13:29;12.43;;;7.28;;
79670;SDS011;69137;50.878;8.050;2023-09-12T00:15:55;13.40;;;7.15;;
79670;SDS011;69137;50.878;8.050;2023-09-12T00:18:21;9.40;;;6.85;;
79670;SDS011;69137;50.878;8.050;2023-09-12T00:20:46;16.38;;;8.50;;
79670;SDS011;69137;50.878;8.050;2023-09-12T00:23:12;9.82;;;7.05;;
79670;SDS011;69137;50.878;8.050;2023-09-12T00:25:37;13.27;;;7.47;;
79670;SDS011;69137;50.878;8.050;2023-09-12T00:28:03;11.57;;;7.43;;
79670;SDS011;69137;50.878;8.050;2023-09-12T00:30:28;9.57;;;7.20;;
79670;SDS011;69137;50.878;8.050;2023-09-12T00:32:54;12.98;;;6.90;;
79670;SDS011;69137;50.878;8.050;2023-09-12T00:35:19;8.43;;;6.22;;
79670;SDS011;69137;50.878;8.050;2023-09-12T00:37:45;15.50;;;7.28;;
79670;SDS011;69137;50.878;8.050;2023-09-12T00:40:10;14.02;;;8.27;;
79670;SDS011;69137;50.878;8.050;2023-09-12T00:42:36;12.20;;;6.53;;
79670;SDS011;69137;50.878;8.050;2023-09-12T00:45:01;13.57;;;7.10;;
79670;SDS011;69137;50.878;8.050;2023-09-12T00:47:27;13.88;;;6.82;;
79670;SDS011;69137;50.878;8.050;2023-09-12T00:49:54;11.88;;;6.95;;
79670;SDS011;69137;50.878;8.050;2023-09-12T00:52:21;16.33;;;7.13;;
79670;SDS011;69137;50.878;8.050;2023-09-12T00:54:50;16.92;;;7.47;;
79670;SDS011;69137;50.878;8.050;2023-09-12T00:57:16;11.93;;;6.88;;
79670;SDS011;69137;50.878;8.050;2023-09-12T00:59:42;11.30;;;6.80;;
79670;SDS011;69137;50.878;8.050;2023-09-12T01:02:08;9.65;;;6.93;;
79670;SDS011;69137;50.878;8.050;2023-09-12T01:04:34;12.93;;;6.53;;
79670;SDS011;69137;50.878;8.050;2023-09-12T01:07:02;15.25;;;6.97;;
79670;SDS011;69137;50.878;8.050;2023-09-12T01:09:29;24.00;;;7.18;;
79670;SDS011;69137;50.878;8.050;2023-09-12T01:11:55;12.60;;;7.07;;
79670;SDS011;69137;50.878;8.050;2023-09-12T01:14:21;14.40;;;7.45;;
79670;SDS011;69137;50.878;8.050;2023-09-12T01:16:46;17.40;;;8.98;;
79670;SDS011;69137;50.878;8.050;2023-09-12T01:19:12;11.57;;;8.02;;
79670;SDS011;69137;50.878;8.050;2023-09-12T01:22:03;12.88;;;7.45;;
79670;SDS011;69137;50.878;8.050;2023-09-12T01:24:45;12.65;;;7.32;;
79670;SDS011;69137;50.878;8.050;2023-09-12T01:27:37;13.48;;;7.38;;
79670;SDS011;69137;50.878;8.050;2023-09-12T01:30:07;14.30;;;7.60;;
79670;SDS011;69137;50.878;8.050;2023-09-12T01:32:33;10.73;;;7.30;;
79670;SDS011;69137;50.878;8.050;2023-09-12T01:34:59;10.90;;;7.05;;
79670;SDS011;69137;50.878;8.050;2023-09-12T01:37:25;16.13;;;8.30;;
79670;SDS011;69137;50.878;8.050;2023-09-12T01:39:51;13.40;;;8.02;;
79670;SDS011;69137;50.878;8.050;2023-09-12T01:42:18;13.48;;;7.65;;
79670;SDS011;69137;50.878;8.050;2023-09-12T01:44:45;15.55;;;9.15;;
79670;SDS011;69137;50.878;8.050;2023-09-12T01:47:14;16.60;;;8.60;;
79670;SDS011;69137;50.878;8.050;2023-09-12T01:52:11;13.90;;;8.27;;
79670;SDS011;69137;50.878;8.050;2023-09-12T01:54:37;15.38;;;8.65;;
79670;SDS011;69137;50.878;8.050;2023-09-12T01:57:03;15.25;;;8.35;;
79670;SDS011;69137;50.878;8.050;2023-09-12T01:59:29;10.75;;;7.13;;
79670;SDS011;69137;50.878;8.050;2023-09-12T02:01:55;11.32;;;8.07;;
79670;SDS011;69137;50.878;8.050;2023-09-12T02:04:20;11.18;;;8.25;;
79670;SDS011;69137;50.878;8.050;2023-09-12T02:06:45;11.70;;;7.47;;
79670;SDS011;69137;50.878;8.050;2023-09-12T02:09:11;11.35;;;8.23;;
79670;SDS011;69137;50.878;8.050;2023-09-12T02:11:36;15.05;;;8.52;;
79670;SDS011;69137;50.878;8.050;2023-09-12T02:14:02;10.75;;;8.43;;
79670;SDS011;69137;50.878;8.050;2023-09-12T02:16:28;11.48;;;7.72;;
79670;SDS011;69137;50.878;8.050;2023-09-12T02:18:54;12.32;;;7.85;;
79670;SDS011;69137;50.878;8.050;2023-09-12T02:21:20;11.25;;;8.25;;
79670;SDS011;69137;50.878;8.050;2023-09-12T02:23:45;10.32;;;7.60;;
79670;SDS011;69137;50.878;8.050;2023-09-12T02:26:10;12.18;;;7.53;;
79670;SDS011;69137;50.878;8.050;2023-09-12T02:28:36;12.00;;;7.68;;
79670;SDS011;69137;50.878;8.050;2023-09-12T02:31:01;14.80;;;8.60;;
79670;SDS011;69137;50.878;8.050;2023-09-12T02:33:27;11.38;;;7.85;;
79670;SDS011;69137;50.878;8.050;2023-09-12T02:35:52;13.20;;;7.65;;
79670;SDS011;69137;50.878;8.050;2023-09-12T02:38:18;17.08;;;7.72;;
79670;SDS011;69137;50.878;8.050;2023-09-12T02:40:44;11.65;;;7.95;;
79670;SDS011;69137;50.878;8.050;2023-09-12T02:43:09;15.30;;;7.65;;
79670;SDS011;69137;50.878;8.050;2023-09-12T02:45:34;12.63;;;8.48;;
79670;SDS011;69137;50.878;8.050;2023-09-12T02:48:00;12.65;;;8.70;;
79670;SDS011;69137;50.878;8.050;2023-09-12T02:50:26;12.80;;;8.30;;
79670;SDS011;69137;50.878;8.050;2023-09-12T02:52:51;22.95;;;8.35;;
79670;SDS011;69137;50.878;8.050;2023-09-12T02:55:17;10.82;;;7.97;;
79670;SDS011;69137;50.878;8.050;2023-09-12T02:57:42;17.55;;;9.38;;
79670;SDS011;69137;50.878;8.050;2023-09-12T03:00:08;17.20;;;9.18;;
79670;SDS011;69137;50.878;8.050;2023-09-12T03:02:34;15.75;;;8.02;;
79670;SDS011;69137;50.878;8.050;2023-09-12T03:04:59;14.13;;;8.75;;
79670;SDS011;69137;50.878;8.050;2023-09-12T03:07:26;11.40;;;7.38;;
79670;SDS011;69137;50.878;8.050;2023-09-12T03:09:52;15.38;;;8.65;;
79670;SDS011;69137;50.878;8.050;2023-09-12T03:12:17;13.57;;;8.45;;
79670;SDS011;69137;50.878;8.050;2023-09-12T03:14:43;17.60;;;7.93;;
79670;SDS011;69137;50.878;8.050;2023-09-12T03:17:08;15.35;;;7.63;;
79670;SDS011;69137;50.878;8.050;2023-09-12T03:19:33;13.15;;;7.68;;
79670;SDS011;69137;50.878;8.050;2023-09-12T03:21:59;13.88;;;8.07;;
79670;SDS011;69137;50.878;8.050;2023-09-12T03:24:24;12.20;;;7.72;;
79670;SDS011;69137;50.878;8.050;2023-09-12T03:26:50;14.00;;;8.10;;
79670;SDS011;69137;50.878;8.050;2023-09-12T03:29:16;13.40;;;8.48;;
79670;SDS011;69137;50.878;8.050;2023-09-12T03:31:42;16.00;;;7.97;;
79670;SDS011;69137;50.878;8.050;2023-09-12T03:34:07;16.67;;;8.13;;
79670;SDS011;69137;50.878;8.050;2023-09-12T03:36:33;11.60;;;7.85;;
79670;SDS011;69137;50.878;8.050;2023-09-12T03:38:58;13.70;;;8.27;;
79670;SDS011;69137;50.878;8.050;2023-09-12T03:41:24;14.65;;;8.38;;
79670;SDS011;69137;50.878;8.050;2023-09-12T03:43:53;14.02;;;8.60;;
79670;SDS011;69137;50.878;8.050;2023-09-12T03:46:19;16.30;;;8.25;;
79670;SDS011;69137;50.878;8.050;2023-09-12T03:48:45;14.43;;;8.63;;
79670;SDS011;69137;50.878;8.050;2023-09-12T03:51:11;13.07;;;8.20;;
79670;SDS011;69137;50.878;8.050;2023-09-12T03:53:36;13.57;;;8.02;;
79670;SDS011;69137;50.878;8.050;2023-09-12T03:56:02;16.02;;;8.32;;
79670;SDS011;69137;50.878;8.050;2023-09-12T03:58:27;11.55;;;7.85;;
79670;SDS011;69137;50.878;8.050;2023-09-12T04:00:53;19.23;;;9.15;;
79670;SDS011;69137;50.878;8.050;2023-09-12T04:03:18;15.18;;;8.57;;
79670;SDS011;69137;50.878;8.050;2023-09-12T04:05:46;14.13;;;8.57;;
79670;SDS011;69137;50.878;8.050;2023-09-12T04:08:12;13.68;;;8.50;;
79670;SDS011;69137;50.878;8.050;2023-09-12T04:10:37;13.23;;;8.40;;
79670;SDS011;69137;50.878;8.050;2023-09-12T04:13:03;12.27;;;10.02;;
79670;SDS011;69137;50.878;8.050;2023-09-12T04:15:28;12.18;;;7.65;;
79670;SDS011;69137;50.878;8.050;2023-09-12T04:17:53;12.40;;;7.47;;
79670;SDS011;69137;50.878;8.050;2023-09-12T04:20:19;12.85;;;8.68;;
79670;SDS011;69137;50.878;8.050;2023-09-12T04:22:44;15.85;;;8.88;;
79670;SDS011;69137;50.878;8.050;2023-09-12T04:25:10;12.88;;;8.93;;
79670;SDS011;69137;50.878;8.050;2023-09-12T04:27:36;12.00;;;8.90;;
79670;SDS011;69137;50.878;8.050;2023-09-12T04:30:01;14.80;;;9.45;;
79670;SDS011;69137;50.878;8.050;2023-09-12T04:32:27;16.73;;;9.68;;
79670;SDS011;69137;50.878;8.050;2023-09-12T04:34:55;17.48;;;9.45;;
79670;SDS011;69137;50.878;8.050;2023-09-12T04:37:20;14.13;;;9.05;;
79670;SDS011;69137;50.878;8.050;2023-09-12T04:39:46;15.30;;;9.05;;
79670;SDS011;69137;50.878;8.050;2023-09-12T04:42:13;11.32;;;8.48;;
79670;SDS011;69137;50.878;8.050;2023-09-12T04:44:39;13.77;;;8.95;;
79670;SDS011;69137;50.878;8.050;2023-09-12T04:47:06;14.90;;;10.00;;
79670;SDS011;69137;50.878;8.050;2023-09-12T04:49:33;15.10;;;9.52;;
79670;SDS011;69137;50.878;8.050;2023-09-12T04:51:58;16.13;;;9.70;;
79670;SDS011;69137;50.878;8.050;2023-09-12T04:54:24;19.35;;;9.70;;
79670;SDS011;69137;50.878;8.050;2023-09-12T04:56:50;17.13;;;9.27;;
79670;SDS011;69137;50.878;8.050;2023-09-12T04:59:15;14.48;;;10.35;;
79670;SDS011;69137;50.878;8.050;2023-09-12T05:01:41;10.85;;;8.25;;
79670;SDS011;69137;50.878;8.050;2023-09-12T05:04:06;13.70;;;9.43;;
79670;SDS011;69137;50.878;8.050;2023-09-12T05:06:32;14.23;;;8.20;;
79670;SDS011;69137;50.878;8.050;2023-09-12T05:08:59;11.60;;;8.98;;
79670;SDS011;69137;50.878;8.050;2023-09-12T05:11:25;12.05;;;8.38;;
79670;SDS011;69137;50.878;8.050;2023-09-12T05:13:50;10.25;;;8.18;;
79670;SDS011;69137;50.878;8.050;2023-09-12T05:16:16;12.95;;;9.27;;
79670;SDS011;69137;50.878;8.050;2023-09-12T05:18:41;12.10;;;9.10;;
79670;SDS011;69137;50.878;8.050;2023-09-12T05:21:07;18.13;;;9.23;;
79670;SDS011;69137;50.878;8.050;2023-09-12T05:23:32;11.90;;;8.98;;
79670;SDS011;69137;50.878;8.050;2023-09-12T05:25:58;15.50;;;8.55;;
79670;SDS011;69137;50.878;8.050;2023-09-12T05:28:23;13.25;;;8.88;;
79670;SDS011;69137;50.878;8.050;2023-09-12T05:30:50;11.68;;;8.25;;
79670;SDS011;69137;50.878;8.050;2023-09-12T05:33:15;15.65;;;9.05;;
79670;SDS011;69137;50.878;8.050;2023-09-12T05:38:11;15.95;;;9.07;;
79670;SDS011;69137;50.878;8.050;2023-09-12T05:40:37;16.67;;;9.05;;
79670;SDS011;69137;50.878;8.050;2023-09-12T05:43:02;16.88;;;10.60;;
79670;SDS011;69137;50.878;8.050;2023-09-12T05:45:28;16.80;;;9.85;;
79670;SDS011;69137;50.878;8.050;2023-09-12T05:47:57;17.05;;;9.55;;
79670;SDS011;69137;50.878;8.050;2023-09-12T05:50:23;16.90;;;10.13;;
79670;SDS011;69137;50.878;8.050;2023-09-12T05:52:49;16.77;;;9.38;;
79670;SDS011;69137;50.878;8.050;2023-09-12T05:55:14;16.50;;;9.85;;
79670;SDS011;69137;50.878;8.050;2023-09-12T05:57:40;15.73;;;11.00;;
79670;SDS011;69137;50.878;8.050;2023-09-12T06:00:05;19.38;;;12.63;;
79670;SDS011;69137;50.878;8.050;2023-09-12T06:02:35;13.55;;;10.02;;
79670;SDS011;69137;50.878;8.050;2023-09-12T06:05:00;16.27;;;10.27;;
79670;SDS011;69137;50.878;8.050;2023-09-12T06:07:26;17.25;;;10.68;;
79670;SDS011;69137;50.878;8.050;2023-09-12T06:09:51;19.85;;;10.35;;
79670;SDS011;69137;50.878;8.050;2023-09-12T06:12:17;13.43;;;9.45;;
79670;SDS011;69137;50.878;8.050;2023-09-12T06:14:43;13.75;;;8.13;;
79670;SDS011;69137;50.878;8.050;2023-09-12T06:17:08;22.30;;;8.95;;
79670;SDS011;69137;50.878;8.050;2023-09-12T06:19:34;14.00;;;9.77;;
79670;SDS011;69137;50.878;8.050;2023-09-12T06:21:59;12.80;;;8.45;;
79670;SDS011;69137;50.878;8.050;2023-09-12T06:24:25;14.38;;;9.52;;
79670;SDS011;69137;50.878;8.050;2023-09-12T06:26:51;14.73;;;9.48;;
79670;SDS011;69137;50.878;8.050;2023-09-12T06:29:16;15.55;;;9.25;;
79670;SDS011;69137;50.878;8.050;2023-09-12T06:31:42;17.38;;;9.32;;
79670;SDS011;69137;50.878;8.050;2023-09-12T06:34:07;14.07;;;8.57;;
79670;SDS011;69137;50.878;8.050;2023-09-12T06:36:33;15.20;;;8.65;;
79670;SDS011;69137;50.878;8.050;2023-09-12T06:38:59;11.68;;;8.07;;
79670;SDS011;69137;50.878;8.050;2023-09-12T06:41:25;12.68;;;7.95;;
79670;SDS011;69137;50.878;8.050;2023-09-12T06:43:51;16.38;;;8.25;;
79670;SDS011;69137;50.878;8.050;2023-09-12T06:46:17;12.88;;;8.52;;
79670;SDS011;69137;50.878;8.050;2023-09-12T06:48:45;13.95;;;8.57;;
79670;SDS011;69137;50.878;8.050;2023-09-12T06:51:11;17.08;;;8.32;;
79670;SDS011;69137;50.878;8.050;2023-09-12T06:53:36;14.05;;;8.32;;
79670;SDS011;69137;50.878;8.050;2023-09-12T06:56:02;12.55;;;8.68;;
79670;SDS011;69137;50.878;8.050;2023-09-12T06:58:31;13.93;;;7.78;;
79670;SDS011;69137;50.878;8.050;2023-09-12T07:01:06;14.80;;;7.70;;
79670;SDS011;69137;50.878;8.050;2023-09-12T07:03:32;14.38;;;8.82;;
79670;SDS011;69137;50.878;8.050;2023-09-12T07:05:58;14.65;;;8.05;;
79670;SDS011;69137;50.878;8.050;2023-09-12T07:08:23;13.35;;;9.07;;
79670;SDS011;69137;50.878;8.050;2023-09-12T07:10:49;14.45;;;8.50;;
79670;SDS011;69137;50.878;8.050;2023-09-12T07:13:14;12.05;;;7.88;;
79670;SDS011;69137;50.878;8.050;2023-09-12T07:15:40;14.68;;;8.40;;
79670;SDS011;69137;50.878;8.050;2023-09-12T07:18:05;13.27;;;8.07;;
79670;SDS011;69137;50.878;8.050;2023-09-12T07:20:31;16.60;;;8.60;;
79670;SDS011;69137;50.878;8.050;2023-09-12T07:22:59;13.13;;;7.85;;
79670;SDS011;69137;50.878;8.050;2023-09-12T07:25:25;12.70;;;7.88;;
79670;SDS011;69137;50.878;8.050;2023-09-12T07:27:51;12.45;;;7.93;;
79670;SDS011;69137;50.878;8.050;2023-09-12T07:30:16;12.38;;;6.88;;
79670;SDS011;69137;50.878;8.050;2023-09-12T07:32:42;15.15;;;8.48;;
79670;SDS011;69137;50.878;8.050;2023-09-12T07:35:08;12.23;;;7.03;;
79670;SDS011;69137;50.878;8.050;2023-09-12T07:37:33;12.82;;;7.68;;
79670;SDS011;69137;50.878;8.050;2023-09-12T07:39:59;18.10;;;7.60;;
79670;SDS011;69137;50.878;8.050;2023-09-12T07:42:25;19.88;;;10.73;;
79670;SDS011;69137;50.878;8.050;2023-09-12T07:44:50;25.80;;;18.50;;
79670;SDS011;69137;50.878;8.050;2023-09-12T07:47:16;23.85;;;13.00;;
79670;SDS011;69137;50.878;8.050;2023-09-12T07:49:42;24.08;;;15.68;;
79670;SDS011;69137;50.878;8.050;2023-09-12T07:52:07;34.38;;;23.50;;
79670;SDS011;69137;50.878;8.050;2023-09-12T07:54:33;23.40;;;14.13;;
79670;SDS011;69137;50.878;8.050;2023-09-12T07:56:58;19.98;;;11.20;;
79670;SDS011;69137;50.878;8.050;2023-09-12T07:59:24;20.17;;;9.50;;
79670;SDS011;69137;50.878;8.050;2023-09-12T08:01:50;16.15;;;8.80;;
79670;SDS011;69137;50.878;8.050;2023-09-12T08:04:16;17.33;;;9.13;;
79670;SDS011;69137;50.878;8.050;2023-09-12T08:06:44;15.00;;;8.70;;
79670;SDS011;69137;50.878;8.050;2023-09-12T08:09:10;18.35;;;8.27;;
79670;SDS011;69137;50.878;8.050;2023-09-12T08:11:36;16.77;;;7.55;;
79670;SDS011;69137;50.878;8.050;2023-09-12T08:14:01;13.75;;;7.78;;
79670;SDS011;69137;50.878;8.050;2023-09-12T08:16:27;15.10;;;7.90;;
79670;SDS011;69137;50.878;8.050;2023-09-12T08:18:52;14.65;;;7.50;;
79670;SDS011;69137;50.878;8.050;2023-09-12T08:21:17;17.23;;;8.60;;
79670;SDS011;69137;50.878;8.050;2023-09-12T08:23:43;17.85;;;8.23;;
79670;SDS011;69137;50.878;8.050;2023-09-12T08:26:08;19.65;;;9.57;;
79670;SDS011;69137;50.878;8.050;2023-09-12T08:28:34;19.02;;;7.88;;
79670;SDS011;69137;50.878;8.050;2023-09-12T08:31:00;14.68;;;8.35;;
79670;SDS011;69137;50.878;8.050;2023-09-12T08:33:25;15.90;;;8.15;;
79670;SDS011;69137;50.878;8.050;2023-09-12T08:35:51;12.95;;;7.93;;
79670;SDS011;69137;50.878;8.050;2023-09-12T08:38:19;18.58;;;7.85;;
79670;SDS011;69137;50.878;8.050;2023-09-12T08:40:48;14.18;;;7.55;;
79670;SDS011;69137;50.878;8.050;2023-09-12T08:43:14;18.42;;;7.20;;
79670;SDS011;69137;50.878;8.050;2023-09-12T08:45:40;20.88;;;7.43;;
79670;SDS011;69137;50.878;8.050;2023-09-12T08:48:08;13.85;;;6.97;;
79670;SDS011;69137;50.878;8.050;2023-09-12T08:50:35;10.98;;;6.82;;
79670;SDS011;69137;50.878;8.050;2023-09-12T08:53:01;11.82;;;7.03;;
79670;SDS011;69137;50.878;8.050;2023-09-12T08:55:26;15.02;;;6.93;;
79670;SDS011;69137;50.878;8.050;2023-09-12T08:57:52;15.88;;;6.75;;
79670;SDS011;69137;50.878;8.050;2023-09-12T09:00:20;12.23;;;6.95;;
79670;SDS011;69137;50.878;8.050;2023-09-12T09:02:47;14.15;;;6.78;;
79670;SDS011;69137;50.878;8.050;2023-09-12T09:05:14;14.77;;;7.03;;
79670;SDS011;69137;50.878;8.050;2023-09-12T09:10:09;13.07;;;6.45;;
79670;SDS011;69137;50.878;8.050;2023-09-12T09:12:40;14.85;;;8.15;;
79670;SDS011;69137;50.878;8.050;2023-09-12T09:17:51;14.50;;;7.03;;
79670;SDS011;69137;50.878;8.050;2023-09-12T09:20:30;15.23;;;7.05;;
79670;SDS011;69137;50.878;8.050;2023-09-12T09:23:09;12.60;;;6.82;;
79670;SDS011;69137;50.878;8.050;2023-09-12T09:25:36;13.25;;;6.15;;
79670;SDS011;69137;50.878;8.050;2023-09-12T09:28:05;19.35;;;7.03;;
79670;SDS011;69137;50.878;8.050;2023-09-12T09:30:41;15.02;;;8.10;;
79670;SDS011;69137;50.878;8.050;2023-09-12T09:35:37;14.38;;;6.63;;
79670;SDS011;69137;50.878;8.050;2023-09-12T09:38:05;11.55;;;6.07;;
79670;SDS011;69137;50.878;8.050;2023-09-12T09:40:32;11.35;;;7.22;;
79670;SDS011;69137;50.878;8.050;2023-09-12T09:42:59;16.52;;;7.50;;
79670;SDS011;69137;50.878;8.050;2023-09-12T09:45:26;15.43;;;6.95;;
79670;SDS011;69137;50.878;8.050;2023-09-12T09:47:52;15.13;;;7.10;;
79670;SDS011;69137;50.878;8.050;2023-09-12T09:50:17;8.80;;;5.97;;
79670;SDS011;69137;50.878;8.050;2023-09-12T09:52:43;10.48;;;7.13;;
79670;SDS011;69137;50.878;8.050;2023-09-12T09:55:15;11.05;;;6.50;;
79670;SDS011;69137;50.878;8.050;2023-09-12T09:57:40;13.55;;;6.47;;
79670;SDS011;69137;50.878;8.050;2023-09-12T10:00:06;11.43;;;5.88;;
79670;SDS011;69137;50.878;8.050;2023-09-12T10:02:35;12.52;;;6.60;;
79670;SDS011;69137;50.878;8.050;2023-09-12T10:05:05;10.88;;;6.25;;
79670;SDS011;69137;50.878;8.050;2023-09-12T10:07:31;11.23;;;6.68;;
79670;SDS011;69137;50.878;8.050;2023-09-12T10:09:58;11.63;;;7.20;;
79670;SDS011;69137;50.878;8.050;2023-09-12T10:12:28;13.77;;;6.93;;
79670;SDS011;69137;50.878;8.050;2023-09-12T10:14:58;15.18;;;7.38;;
79670;SDS011;69137;50.878;8.050;2023-09-12T10:17:26;11.07;;;5.50;;
79670;SDS011;69137;50.878;8.050;2023-09-12T10:20:02;12.55;;;5.90;;
79670;SDS011;69137;50.878;8.050;2023-09-12T10:22:37;10.68;;;7.07;;
79670;SDS011;69137;50.878;8.050;2023-09-12T10:25:13;15.02;;;6.65;;
79670;SDS011;69137;50.878;8.050;2023-09-12T10:27:38;11.65;;;6.38;;
79670;SDS011;69137;50.878;8.050;2023-09-12T10:30:05;13.43;;;7.05;;
79670;SDS011;69137;50.878;8.050;2023-09-12T10:32:32;18.10;;;7.20;;
79670;SDS011;69137;50.878;8.050;2023-09-12T10:34:59;18.58;;;7.75;;
79670;SDS011;69137;50.878;8.050;2023-09-12T10:37:25;18.75;;;7.50;;
79670;SDS011;69137;50.878;8.050;2023-09-12T10:39:54;14.38;;;7.28;;
79670;SDS011;69137;50.878;8.050;2023-09-12T10:42:21;13.55;;;6.60;;
79670;SDS011;69137;50.878;8.050;2023-09-12T10:44:49;14.30;;;7.28;;
79670;SDS011;69137;50.878;8.050;2023-09-12T10:49:45;12.57;;;6.32;;
79670;SDS011;69137;50.878;8.050;2023-09-12T10:52:23;22.27;;;8.07;;
79670;SDS011;69137;50.878;8.050;2023-09-12T10:54:49;13.80;;;6.85;;
79670;SDS011;69137;50.878;8.050;2023-09-12T10:57:15;13.93;;;7.22;;
79670;SDS011;69137;50.878;8.050;2023-09-12T11:02:34;18.73;;;8.48;;
79670;SDS011;69137;50.878;8.050;2023-09-12T11:05:04;15.00;;;7.07;;
79670;SDS011;69137;50.878;8.050;2023-09-12T11:07:50;16.83;;;7.53;;
79670;SDS011;69137;50.878;8.050;2023-09-12T11:10:16;16.67;;;8.05;;
79670;SDS011;69137;50.878;8.050;2023-09-12T11:12:46;14.82;;;7.50;;
79670;SDS011;69137;50.878;8.050;2023-09-12T11:15:14;12.48;;;6.93;;
79670;SDS011;69137;50.878;8.050;2023-09-12T11:17:40;14.05;;;7.32;;
79670;SDS011;69137;50.878;8.050;2023-09-12T11:20:07;11.88;;;7.28;;
79670;SDS011;69137;50.878;8.050;2023-09-12T11:22:35;13.55;;;7.20;;
79670;SDS011;69137;50.878;8.050;2023-09-12T11:25:26;11.70;;;6.82;;
79670;SDS011;69137;50.878;8.050;2023-09-12T11:30:19;13.77;;;7.32;;
79670;SDS011;69137;50.878;8.050;2023-09-12T11:32:47;11.95;;;7.45;;
79670;SDS011;69137;50.878;8.050;2023-09-12T11:35:21;15.13;;;6.72;;
79670;SDS011;69137;50.878;8.050;2023-09-12T11:41:10;14.52;;;6.97;;
79670;SDS011;69137;50.878;8.050;2023-09-12T11:43:36;14.70;;;6.50;;
79670;SDS011;69137;50.878;8.050;2023-09-12T11:46:03;10.68;;;6.22;;
79670;SDS011;69137;50.878;8.050;2023-09-12T11:48:29;13.70;;;7.00;;
79670;SDS011;69137;50.878;8.050;2023-09-12T11:50:55;16.10;;;7.82;;
79670;SDS011;69137;50.878;8.050;2023-09-12T11:53:22;11.50;;;6.72;;
79670;SDS011;69137;50.878;8.050;2023-09-12T11:55:51;13.38;;;6.63;;
79670;SDS011;69137;50.878;8.050;2023-09-12T11:58:19;13.48;;;6.20;;
79670;SDS011;69137;50.878;8.050;2023-09-12T12:00:49;13.48;;;7.10;;
79670;SDS011;69137;50.878;8.050;2023-09-12T12:03:16;17.77;;;7.75;;
79670;SDS011;69137;50.878;8.050;2023-09-12T12:05:43;10.13;;;6.72;;
79670;SDS011;69137;50.878;8.050;2023-09-12T12:08:10;14.63;;;7.25;;
79670;SDS011;69137;50.878;8.050;2023-09-12T12:10:36;18.55;;;7.80;;
79670;SDS011;69137;50.878;8.050;2023-09-12T12:13:04;14.63;;;7.30;;
79670;SDS011;69137;50.878;8.050;2023-09-12T12:15:29;13.35;;;7.13;;
79670;SDS011;69137;50.878;8.050;2023-09-12T12:17:55;9.45;;;6.82;;
79670;SDS011;69137;50.878;8.050;2023-09-12T12:20:21;12.63;;;7.63;;
79670;SDS011;69137;50.878;8.050;2023-09-12T12:22:47;10.00;;;7.13;;
79670;SDS011;69137;50.878;8.050;2023-09-12T12:25:13;17.10;;;7.82;;
79670;SDS011;69137;50.878;8.050;2023-09-12T12:27:40;15.48;;;7.43;;
79670;SDS011;69137;50.878;8.050;2023-09-12T12:30:07;19.92;;;7.97;;
79670;SDS011;69137;50.878;8.050;2023-09-12T12:32:34;14.50;;;6.95;;
79670;SDS011;69137;50.878;8.050;2023-09-12T12:34:59;14.77;;;7.95;;
79670;SDS011;69137;50.878;8.050;2023-09-12T12:37:30;12.70;;;6.45;;
79670;SDS011;69137;50.878;8.050;2023-09-12T12:39:56;14.32;;;7.25;;
79670;SDS011;69137;50.878;8.050;2023-09-12T12:42:21;11.95;;;7.53;;
79670;SDS011;69137;50.878;8.050;2023-09-12T12:44:52;15.00;;;7.97;;
79670;SDS011;69137;50.878;8.050;2023-09-12T12:47:18;16.05;;;7.70;;
79670;SDS011;69137;50.878;8.050;2023-09-12T12:49:46;13.60;;;7.03;;
79670;SDS011;69137;50.878;8.050;2023-09-12T12:52:16;11.50;;;7.55;;
79670;SDS011;69137;50.878;8.050;2023-09-12T12:54:42;16.35;;;8.30;;
79670;SDS011;69137;50.878;8.050;2023-09-12T12:57:08;15.23;;;6.53;;
79670;SDS011;69137;50.878;8.050;2023-09-12T12:59:37;11.90;;;6.82;;
79670;SDS011;69137;50.878;8.050;2023-09-12T13:02:03;14.40;;;7.78;;
79670;SDS011;69137;50.878;8.050;2023-09-12T13:04:34;15.77;;;7.43;;
79670;SDS011;69137;50.878;8.050;2023-09-12T13:07:01;15.05;;;7.65;;
79670;SDS011;69137;50.878;8.050;2023-09-12T13:09:26;10.57;;;7.35;;
79670;SDS011;69137;50.878;8.050;2023-09-12T13:11:52;17.63;;;7.80;;
79670;SDS011;69137;50.878;8.050;2023-09-12T13:14:17;12.82;;;8.00;;
79670;SDS011;69137;50.878;8.050;2023-09-12T13:16:44;14.15;;;7.85;;
79670;SDS011;69137;50.878;8.050;2023-09-12T13:19:10;16.85;;;7.25;;
79670;SDS011;69137;50.878;8.050;2023-09-12T13:21:38;12.55;;;7.97;;
79670;SDS011;69137;50.878;8.050;2023-09-12T13:24:04;13.38;;;7.03;;
79670;SDS011;69137;50.878;8.050;2023-09-12T13:26:29;11.57;;;7.45;;
79670;SDS011;69137;50.878;8.050;2023-09-12T13:28:56;17.13;;;7.32;;
79670;SDS011;69137;50.878;8.050;2023-09-12T13:31:22;16.70;;;7.70;;
79670;SDS011;69137;50.878;8.050;2023-09-12T13:33:48;17.02;;;7.32;;
79670;SDS011;69137;50.878;8.050;2023-09-12T13:36:13;14.52;;;7.00;;
79670;SDS011;69137;50.878;8.050;2023-09-12T13:38:39;13.38;;;6.88;;
79670;SDS011;69137;50.878;8.050;2023-09-12T13:41:04;11.88;;;7.43;;
79670;SDS011;69137;50.878;8.050;2023-09-12T13:43:30;11.85;;;7.13;;
79670;SDS011;69137;50.878;8.050;2023-09-12T13:45:56;14.55;;;7.43;;
79670;SDS011;69137;50.878;8.050;2023-09-12T13:48:21;14.20;;;8.43;;
79670;SDS011;69137;50.878;8.050;2023-09-12T13:50:47;12.95;;;7.32;;
79670;SDS011;69137;50.878;8.050;2023-09-12T13:53:12;12.35;;;7.70;;
79670;SDS011;69137;50.878;8.050;2023-09-12T13:55:38;14.80;;;7.07;;
79670;SDS011;69137;50.878;8.050;2023-09-12T13:58:03;14.88;;;8.00;;
79670;SDS011;69137;50.878;8.050;2023-09-12T14:00:31;13.98;;;7.35;;
79670;SDS011;69137;50.878;8.050;2023-09-12T14:02:57;15.75;;;7.38;;
79670;SDS011;69137;50.878;8.050;2023-09-12T14:05:22;15.70;;;7.82;;
79670;SDS011;69137;50.878;8.050;2023-09-12T14:07:49;14.50;;;8.30;;
79670;SDS011;69137;50.878;8.050;2023-09-12T14:10:15;18.75;;;8.15;;
79670;SDS011;69137;50.878;8.050;2023-09-12T14:12:40;12.93;;;7.15;;
79670;SDS011;69137;50.878;8.050;2023-09-12T14:15:06;13.10;;;7.32;;
79670;SDS011;69137;50.878;8.050;2023-09-12T14:17:32;14.05;;;6.63;;
79670;SDS011;69137;50.878;8.050;2023-09-12T14:19:57;11.02;;;7.35;;
79670;SDS011;69137;50.878;8.050;2023-09-12T14:22:23;11.50;;;7.68;;
79670;SDS011;69137;50.878;8.050;2023-09-12T14:24:48;15.30;;;8.05;;
79670;SDS011;69137;50.878;8.050;2023-09-12T14:27:13;13.63;;;7.85;;
79670;SDS011;69137;50.878;8.050;2023-09-12T14:29:39;12.60;;;8.70;;
79670;SDS011;69137;50.878;8.050;2023-09-12T14:32:04;14.35;;;8.98;;
79670;SDS011;69137;50.878;8.050;2023-09-12T14:34:30;18.95;;;8.73;;
79670;SDS011;69137;50.878;8.050;2023-09-12T14:36:58;21.02;;;8.77;;
79670;SDS011;69137;50.878;8.050;2023-09-12T14:39:24;14.23;;;8.65;;
79670;SDS011;69137;50.878;8.050;2023-09-12T14:41:50;11.90;;;8.30;;
79670;SDS011;69137;50.878;8.050;2023-09-12T14:44:19;17.17;;;8.68;;
79670;SDS011;69137;50.878;8.050;2023-09-12T14:46:48;13.82;;;8.02;;
79670;SDS011;69137;50.878;8.050;2023-09-12T14:49:13;16.15;;;8.40;;
79670;SDS011;69137;50.878;8.050;2023-09-12T14:51:39;14.52;;;8.80;;
79670;SDS011;69137;50.878;8.050;2023-09-12T14:54:05;14.40;;;8.60;;
79670;SDS011;69137;50.878;8.050;2023-09-12T14:56:31;16.25;;;9.02;;